AirNav   MODERNIZE NOT PRIVATIZE ATC
 
 1549 users online  

AL88 Ban Farm Airport
Lillian, Alabama, USA

GOING TO LILLIAN?


FAA INFORMATION EFFECTIVE 20 JULY 2017

Location

FAA Identifier: AL88
Lat/Long: 30-25-35.7120N / 087-28-14.9260W
30-25.595200N / 087-28.248767W
30.4265867 / -87.4708128
(estimated)
Elevation: 80 ft. / 24 m (estimated)
Variation: 01E (1985)
From city: 3 miles NW of LILLIAN, AL
Time zone: UTC -5 (UTC -6 during Standard Time)
Zip code: 36530

Airport Operations

Airport use: Private use. Permission required prior to landing
Activation date: 06/1991
Control tower: no
ARTCC: JACKSONVILLE CENTER
FSS: ANNISTON FLIGHT SERVICE STATION
Attendance: CONTINUOUS
Wind indicator: yes
Segmented circle: no

Airport Communications

WX AWOS-3 at JKA (13 nm SW): 134.525 (251-968-7581)
WX ASOS at PNS (15 nm E): PHONE 850-436-4799

Nearby radio navigation aids

VOR radial/distance  VOR name  Freq  Var
NUNr248/(7.5)SAUFLEY VOR108.8001E
BFMr106/32.2BROOKLEY VORTAC112.8004E

 
NDB name  Hdg/Dist  Freq  Var  ID
PICKENS270/15.132602WPKZ .--. -.- --..

Airport Services

Runway Information

Runway 9/27

Dimensions: 1320 x 95 ft. / 402 x 29 m
Surface: turf
RUNWAY 9  RUNWAY 27
Traffic pattern: rightleft

Airport Ownership and Management from official FAA records

Ownership: Privately-owned
Owner: WILLIAM T. MILES
P.O. BOX 329
LILLIAN, AL 36549
Phone (251) 979-0809
Manager: WILLIAM T. MILES
P.O. BOX 329
LILLIAN, AL 36549
Phone (251) 979-0809

Airport Operational Statistics

Aircraft based on the field: 1
Single engine airplanes: 1
    

Additional Remarks

OWNER DESIRES ARPT NOT BE CHARTED.

Instrument Procedures

There are no published instrument procedures at AL88.

Some nearby airports with instrument procedures:

KNPA - Pensacola Naval Air Station/Forrest Sherman Field (9 nm SE)
5R4 - Foley Municipal Airport (12 nm W)
KJKA - Jack Edwards Airport (13 nm SW)
KPNS - Pensacola International Airport (15 nm E)
KCQF - H L Sonny Callahan Airport (21 nm W)
 
Loc | Ops | Rwys | IFR | FBO | Links
Com | Nav | Svcs | Stats | Notes

Gulf Air Center
AirBoss

 
Area around AL88 (Ban Farm Airport)
 
Road maps at: MapQuest Bing Google
 
Aerial photo
No photo
 
Sectional chart

 
Airport distance calculator
Flying to Ban Farm Airport? Find the distance to fly.

From to AL88

Sunrise and sunset
Times for 28-Jul-2017
 Local
(UTC-5)
 Zulu
(UTC)
Morning civil twilight05:4010:40
Sunrise06:0711:07
Sunset19:4600:46
Evening civil twilight20:1201:12

Current date and time
Zulu (UTC)  28-Jul-2017 17:00:14
Local (UTC-5)  28-Jul-2017 12:00:14
 
METAR
KNPA 
9nm SE 
281556Z 32006KT 10SM BKN250 33/23 A2996 RMK AO2 SLP148 T03280228 $
KJKA 
13nm SW 
281635Z AUTO 31007G19KT 280V350 10SM CLR 32/24 A2996 RMK AO2 T03240235
KPNS 
15nm E 
281653Z 27008KT 10SM CLR 34/23 A2995 RMK AO2 SLP142 T03440228
TAF
KNPA 
9nm SE 
2815/2915 VRB06KT 9999 FEW035 BKN250 QNH2986INS FM282000 23010KT 9999 VCTS SCT040CB SCT120 BKN250 QNH2983INS TEMPO 2821/2901 VRB15G20KT 4800 TSRA BKN030CB BKN120 FM290100 24007KT 9999 SCT050 BKN120 BKN250 QNH2985INS FM290700 27010KT 9999 VCTS SCT025CB BKN060 BKN120 OVC250 QNH2981INS TEMPO 2910/2915 4800 TSRA BKN025CB OVC050 T34/2818Z T24/2910Z FN20053
KPNS 
15nm E 
281120Z 2812/2912 00000KT P6SM BKN250 FM282100 23009KT P6SM SCT030 SCT250 FM290600 VRB05KT P6SM VCTS SCT025CB BKN050
NOTAMs
Click for the latest NOTAMs
NOTAMs are issued by the DoD/FAA and will open in a separate window not controlled by AirNav.

 

 
 

Would you like to see your business listed on this page?

 If your business provides an interesting product or service to pilots, flight crews, aircraft, or users of the Ban Farm Airport, you should consider listing it here.  To start the listing process, click on the button below
 
Add a business
 

Other Pages about Ban Farm Airport

Update a link
 
Copyright © AirNav, LLC. All rights reserved. Privacy Policy  Contact